Grosse Ile Township, MI

1:31 AM EST on February 14, 2016 (GMT -0500)
Grosse Ile Municipal | | Change Station
CLOSE
Current Station
Airport
Location: Grosse Ile,
Elevation: 591 ft
Nearby Weather Stations

Elev 591 ft 42.10 °N, 83.16 °W | Updated 17 minutes ago

Clear
Clear
5 °F
Feels Like 5 °F
N
0
Wind Variable Wind from North

Today
High -- | Low -- °F
--% Chance of Precip.
Yesterday
High -- | Low -- °F
Precip. -- in
Pressure 30.46 in
Visibility 10.0 miles
Clouds Clear
Dew Point 1 °F
Humidity 85%
Rainfall 0.00 in
Snow Depth Not available.
7:30 AM 6:03 PM
Waxing Crescent, 38% visible
METAR KONZ 140614Z AUTO 00000KT 10SM CLR M15/M17 A3046 RMK AO2
Pressure 30.46 in
Visibility 10.0 miles
Clouds Clear
Dew Point 1 °F
Humidity 85%
Rainfall 0.00 in
Snow Depth Not available.
7:30 AM 6:03 PM
Waxing Crescent, 38% visible
METAR KONZ 140614Z AUTO 00000KT 10SM CLR M15/M17 A3046 RMK AO2

10-Day Weather Forecast

Almanac

Astronomy

Feb. 14, 2016 Rise Set
Actual Time
Civil Twilight
Nautical Twilight
Astronomical Twilight
Moon
Length of Visible Light
Length of Day
Tomorrow will be .
, % of the Moon is Illuminated

Today's Extremes

State Highs State Lows

Community

WunderPhotos

Upload Photos

1,892,757 photos uploaded!

WunderBlog® & News

Nearby

Air Quality

  Air Quality AQ Index Pollutant
Not available.

Snow Depth

Station Depth Elevation

Earthquake Activity

City Distance Mag. Time & Date
Minimum magnitude displayed is 2.5.

Coastal Water Temperatures

Place Temperature

Stations

Nearby Weather Stations

Station Location Temp. Windchill Dew Point Humidity Wind Precip. Elev Updated Type
                   

Watches & Warnings

There are currently no watches in effect.